sensor_id;sensor_type;location;lat;lon;timestamp;P1;durP1;ratioP1;P2;durP2;ratioP2
41661;SDS011;27351;45.992;12.666;2024-02-04T00:02:08;21.07;;;10.87;;
41661;SDS011;27351;45.992;12.666;2024-02-04T00:04:39;19.00;;;10.23;;
41661;SDS011;27351;45.992;12.666;2024-02-04T00:07:05;18.98;;;9.80;;
41661;SDS011;27351;45.992;12.666;2024-02-04T00:09:31;21.23;;;10.50;;
41661;SDS011;27351;45.992;12.666;2024-02-04T00:11:57;16.83;;;8.80;;
41661;SDS011;27351;45.992;12.666;2024-02-04T00:14:24;18.00;;;9.70;;
41661;SDS011;27351;45.992;12.666;2024-02-04T00:16:49;20.47;;;10.67;;
41661;SDS011;27351;45.992;12.666;2024-02-04T00:19:15;18.17;;;9.47;;
41661;SDS011;27351;45.992;12.666;2024-02-04T00:21:40;20.43;;;10.33;;
41661;SDS011;27351;45.992;12.666;2024-02-04T00:24:06;18.70;;;9.80;;
41661;SDS011;27351;45.992;12.666;2024-02-04T00:26:32;15.23;;;8.20;;
41661;SDS011;27351;45.992;12.666;2024-02-04T00:28:57;17.98;;;9.30;;
41661;SDS011;27351;45.992;12.666;2024-02-04T00:31:23;19.63;;;9.90;;
41661;SDS011;27351;45.992;12.666;2024-02-04T00:33:49;17.23;;;9.50;;
41661;SDS011;27351;45.992;12.666;2024-02-04T00:36:14;15.53;;;8.53;;
41661;SDS011;27351;45.992;12.666;2024-02-04T00:38:40;19.63;;;9.25;;
41661;SDS011;27351;45.992;12.666;2024-02-04T00:41:05;17.23;;;8.00;;
41661;SDS011;27351;45.992;12.666;2024-02-04T00:43:31;14.50;;;7.80;;
41661;SDS011;27351;45.992;12.666;2024-02-04T00:45:57;15.68;;;7.65;;
41661;SDS011;27351;45.992;12.666;2024-02-04T00:48:25;17.73;;;8.07;;
41661;SDS011;27351;45.992;12.666;2024-02-04T00:50:50;19.60;;;8.88;;
41661;SDS011;27351;45.992;12.666;2024-02-04T00:53:16;17.13;;;8.60;;
41661;SDS011;27351;45.992;12.666;2024-02-04T00:55:42;17.05;;;8.30;;
41661;SDS011;27351;45.992;12.666;2024-02-04T00:58:07;14.82;;;7.85;;
41661;SDS011;27351;45.992;12.666;2024-02-04T01:00:33;15.85;;;9.20;;
41661;SDS011;27351;45.992;12.666;2024-02-04T01:02:58;15.70;;;8.50;;
41661;SDS011;27351;45.992;12.666;2024-02-04T01:05:24;16.88;;;8.77;;
41661;SDS011;27351;45.992;12.666;2024-02-04T01:07:50;15.32;;;7.53;;
41661;SDS011;27351;45.992;12.666;2024-02-04T01:10:15;14.63;;;7.90;;
41661;SDS011;27351;45.992;12.666;2024-02-04T01:12:41;15.07;;;8.05;;
41661;SDS011;27351;45.992;12.666;2024-02-04T01:15:06;18.58;;;8.35;;
41661;SDS011;27351;45.992;12.666;2024-02-04T01:17:32;14.95;;;8.48;;
41661;SDS011;27351;45.992;12.666;2024-02-04T01:19:59;18.63;;;9.13;;
41661;SDS011;27351;45.992;12.666;2024-02-04T01:22:24;16.73;;;9.35;;
41661;SDS011;27351;45.992;12.666;2024-02-04T01:24:52;17.35;;;9.68;;
41661;SDS011;27351;45.992;12.666;2024-02-04T01:27:18;18.10;;;9.52;;
41661;SDS011;27351;45.992;12.666;2024-02-04T01:29:44;19.73;;;9.83;;
41661;SDS011;27351;45.992;12.666;2024-02-04T01:32:09;20.03;;;10.03;;
41661;SDS011;27351;45.992;12.666;2024-02-04T01:34:35;17.53;;;9.47;;
41661;SDS011;27351;45.992;12.666;2024-02-04T01:37:00;19.47;;;10.30;;
41661;SDS011;27351;45.992;12.666;2024-02-04T01:39:26;22.38;;;10.25;;
41661;SDS011;27351;45.992;12.666;2024-02-04T01:41:51;20.35;;;9.98;;
41661;SDS011;27351;45.992;12.666;2024-02-04T01:44:17;20.43;;;10.00;;
41661;SDS011;27351;45.992;12.666;2024-02-04T01:46:44;19.00;;;9.73;;
41661;SDS011;27351;45.992;12.666;2024-02-04T01:49:10;18.23;;;9.85;;
41661;SDS011;27351;45.992;12.666;2024-02-04T01:51:35;18.38;;;9.05;;
41661;SDS011;27351;45.992;12.666;2024-02-04T01:54:01;18.27;;;10.10;;
41661;SDS011;27351;45.992;12.666;2024-02-04T01:56:28;18.77;;;10.27;;
41661;SDS011;27351;45.992;12.666;2024-02-04T01:58:54;19.42;;;9.43;;
41661;SDS011;27351;45.992;12.666;2024-02-04T02:01:25;19.27;;;10.32;;
41661;SDS011;27351;45.992;12.666;2024-02-04T02:03:51;19.70;;;9.85;;
41661;SDS011;27351;45.992;12.666;2024-02-04T02:06:17;17.80;;;9.67;;
41661;SDS011;27351;45.992;12.666;2024-02-04T02:08:42;17.43;;;8.90;;
41661;SDS011;27351;45.992;12.666;2024-02-04T02:11:11;15.68;;;9.48;;
41661;SDS011;27351;45.992;12.666;2024-02-04T02:13:37;18.67;;;10.00;;
41661;SDS011;27351;45.992;12.666;2024-02-04T02:16:07;17.13;;;9.70;;
41661;SDS011;27351;45.992;12.666;2024-02-04T02:18:40;19.70;;;9.15;;
41661;SDS011;27351;45.992;12.666;2024-02-04T02:23:53;17.20;;;9.50;;
41661;SDS011;27351;45.992;12.666;2024-02-04T02:26:21;17.02;;;8.77;;
41661;SDS011;27351;45.992;12.666;2024-02-04T02:28:48;19.80;;;9.70;;
41661;SDS011;27351;45.992;12.666;2024-02-04T02:31:14;16.90;;;9.07;;
41661;SDS011;27351;45.992;12.666;2024-02-04T02:33:40;17.85;;;8.80;;
41661;SDS011;27351;45.992;12.666;2024-02-04T02:36:06;19.33;;;8.93;;
41661;SDS011;27351;45.992;12.666;2024-02-04T02:38:37;19.83;;;8.75;;
41661;SDS011;27351;45.992;12.666;2024-02-04T02:41:07;15.15;;;9.63;;
41661;SDS011;27351;45.992;12.666;2024-02-04T02:43:33;16.33;;;9.00;;
41661;SDS011;27351;45.992;12.666;2024-02-04T02:45:59;16.42;;;8.38;;
41661;SDS011;27351;45.992;12.666;2024-02-04T02:48:25;17.92;;;8.25;;
41661;SDS011;27351;45.992;12.666;2024-02-04T02:50:51;18.57;;;8.90;;
41661;SDS011;27351;45.992;12.666;2024-02-04T02:53:17;16.70;;;9.13;;
41661;SDS011;27351;45.992;12.666;2024-02-04T02:55:45;16.00;;;8.27;;
41661;SDS011;27351;45.992;12.666;2024-02-04T02:58:12;15.45;;;7.78;;
41661;SDS011;27351;45.992;12.666;2024-02-04T03:00:38;14.80;;;7.70;;
41661;SDS011;27351;45.992;12.666;2024-02-04T03:03:03;14.20;;;8.18;;
41661;SDS011;27351;45.992;12.666;2024-02-04T03:05:29;17.05;;;8.13;;
41661;SDS011;27351;45.992;12.666;2024-02-04T03:07:55;18.90;;;7.97;;
41661;SDS011;27351;45.992;12.666;2024-02-04T03:10:20;14.50;;;7.23;;
41661;SDS011;27351;45.992;12.666;2024-02-04T03:12:46;18.80;;;7.93;;
41661;SDS011;27351;45.992;12.666;2024-02-04T03:15:11;17.07;;;7.67;;
41661;SDS011;27351;45.992;12.666;2024-02-04T03:17:37;16.87;;;7.60;;
41661;SDS011;27351;45.992;12.666;2024-02-04T03:20:03;13.23;;;7.30;;
41661;SDS011;27351;45.992;12.666;2024-02-04T03:22:28;14.90;;;8.00;;
41661;SDS011;27351;45.992;12.666;2024-02-04T03:24:54;14.00;;;7.10;;
41661;SDS011;27351;45.992;12.666;2024-02-04T03:27:20;18.17;;;8.45;;
41661;SDS011;27351;45.992;12.666;2024-02-04T03:29:47;13.95;;;7.53;;
41661;SDS011;27351;45.992;12.666;2024-02-04T03:32:13;15.52;;;7.75;;
41661;SDS011;27351;45.992;12.666;2024-02-04T03:34:41;15.23;;;8.10;;
41661;SDS011;27351;45.992;12.666;2024-02-04T03:37:06;13.85;;;8.52;;
41661;SDS011;27351;45.992;12.666;2024-02-04T03:39:32;15.00;;;7.70;;
41661;SDS011;27351;45.992;12.666;2024-02-04T03:41:58;14.70;;;7.47;;
41661;SDS011;27351;45.992;12.666;2024-02-04T03:44:23;17.77;;;8.53;;
41661;SDS011;27351;45.992;12.666;2024-02-04T03:46:49;17.70;;;8.30;;
41661;SDS011;27351;45.992;12.666;2024-02-04T03:49:16;16.45;;;8.00;;
41661;SDS011;27351;45.992;12.666;2024-02-04T03:51:41;14.60;;;7.63;;
41661;SDS011;27351;45.992;12.666;2024-02-04T03:54:07;16.63;;;8.10;;
41661;SDS011;27351;45.992;12.666;2024-02-04T03:56:32;16.93;;;8.40;;
41661;SDS011;27351;45.992;12.666;2024-02-04T03:58:58;16.53;;;7.83;;
41661;SDS011;27351;45.992;12.666;2024-02-04T04:01:23;15.60;;;7.83;;
41661;SDS011;27351;45.992;12.666;2024-02-04T04:03:49;15.95;;;8.73;;
41661;SDS011;27351;45.992;12.666;2024-02-04T04:06:14;16.33;;;8.30;;
41661;SDS011;27351;45.992;12.666;2024-02-04T04:08:40;14.67;;;8.50;;
41661;SDS011;27351;45.992;12.666;2024-02-04T04:11:07;15.23;;;7.73;;
41661;SDS011;27351;45.992;12.666;2024-02-04T04:13:33;17.57;;;8.73;;
41661;SDS011;27351;45.992;12.666;2024-02-04T04:16:00;16.13;;;8.35;;
41661;SDS011;27351;45.992;12.666;2024-02-04T04:18:25;18.20;;;8.98;;
41661;SDS011;27351;45.992;12.666;2024-02-04T04:20:51;15.35;;;8.63;;
41661;SDS011;27351;45.992;12.666;2024-02-04T04:23:16;14.43;;;7.82;;
41661;SDS011;27351;45.992;12.666;2024-02-04T04:25:42;13.95;;;7.47;;
41661;SDS011;27351;45.992;12.666;2024-02-04T04:28:08;17.00;;;8.93;;
41661;SDS011;27351;45.992;12.666;2024-02-04T04:30:33;15.45;;;7.95;;
41661;SDS011;27351;45.992;12.666;2024-02-04T04:32:59;14.52;;;8.73;;
41661;SDS011;27351;45.992;12.666;2024-02-04T04:35:24;15.55;;;7.63;;
41661;SDS011;27351;45.992;12.666;2024-02-04T04:37:50;18.98;;;9.07;;
41661;SDS011;27351;45.992;12.666;2024-02-04T04:40:16;16.07;;;8.17;;
41661;SDS011;27351;45.992;12.666;2024-02-04T04:42:41;15.90;;;7.97;;
41661;SDS011;27351;45.992;12.666;2024-02-04T04:45:07;14.97;;;7.50;;
41661;SDS011;27351;45.992;12.666;2024-02-04T04:47:36;14.38;;;7.22;;
41661;SDS011;27351;45.992;12.666;2024-02-04T04:50:02;15.65;;;7.60;;
41661;SDS011;27351;45.992;12.666;2024-02-04T04:52:27;12.85;;;7.78;;
41661;SDS011;27351;45.992;12.666;2024-02-04T04:54:53;16.30;;;7.57;;
41661;SDS011;27351;45.992;12.666;2024-02-04T04:57:18;18.10;;;7.57;;
41661;SDS011;27351;45.992;12.666;2024-02-04T04:59:44;13.90;;;6.77;;
41661;SDS011;27351;45.992;12.666;2024-02-04T05:02:10;15.17;;;7.83;;
41661;SDS011;27351;45.992;12.666;2024-02-04T05:04:36;13.00;;;6.80;;
41661;SDS011;27351;45.992;12.666;2024-02-04T05:07:01;15.00;;;6.82;;
41661;SDS011;27351;45.992;12.666;2024-02-04T05:09:27;17.15;;;7.32;;
41661;SDS011;27351;45.992;12.666;2024-02-04T05:11:52;12.13;;;5.65;;
41661;SDS011;27351;45.992;12.666;2024-02-04T05:14:18;12.52;;;6.65;;
41661;SDS011;27351;45.992;12.666;2024-02-04T05:16:43;12.45;;;6.32;;
41661;SDS011;27351;45.992;12.666;2024-02-04T05:19:10;12.30;;;6.53;;
41661;SDS011;27351;45.992;12.666;2024-02-04T05:21:40;12.68;;;6.82;;
41661;SDS011;27351;45.992;12.666;2024-02-04T05:24:05;14.00;;;6.75;;
41661;SDS011;27351;45.992;12.666;2024-02-04T05:26:31;12.83;;;5.97;;
41661;SDS011;27351;45.992;12.666;2024-02-04T05:28:57;11.40;;;5.83;;
41661;SDS011;27351;45.992;12.666;2024-02-04T05:31:22;15.73;;;6.70;;
41661;SDS011;27351;45.992;12.666;2024-02-04T05:33:48;14.23;;;6.37;;
41661;SDS011;27351;45.992;12.666;2024-02-04T05:36:13;13.97;;;6.20;;
41661;SDS011;27351;45.992;12.666;2024-02-04T05:38:42;12.10;;;6.07;;
41661;SDS011;27351;45.992;12.666;2024-02-04T05:41:08;10.75;;;5.72;;
41661;SDS011;27351;45.992;12.666;2024-02-04T05:43:33;14.30;;;5.40;;
41661;SDS011;27351;45.992;12.666;2024-02-04T05:45:59;14.10;;;6.40;;
41661;SDS011;27351;45.992;12.666;2024-02-04T05:48:25;13.83;;;6.37;;
41661;SDS011;27351;45.992;12.666;2024-02-04T05:50:50;13.93;;;6.20;;
41661;SDS011;27351;45.992;12.666;2024-02-04T05:53:16;16.03;;;7.23;;
41661;SDS011;27351;45.992;12.666;2024-02-04T05:55:41;14.00;;;6.30;;
41661;SDS011;27351;45.992;12.666;2024-02-04T05:58:07;13.33;;;6.53;;
41661;SDS011;27351;45.992;12.666;2024-02-04T06:00:33;15.33;;;6.60;;
41661;SDS011;27351;45.992;12.666;2024-02-04T06:02:58;12.17;;;6.53;;
41661;SDS011;27351;45.992;12.666;2024-02-04T06:05:24;14.53;;;6.53;;
41661;SDS011;27351;45.992;12.666;2024-02-04T06:07:49;14.30;;;6.30;;
41661;SDS011;27351;45.992;12.666;2024-02-04T06:10:15;17.10;;;7.50;;
41661;SDS011;27351;45.992;12.666;2024-02-04T06:12:40;12.80;;;6.60;;
41661;SDS011;27351;45.992;12.666;2024-02-04T06:15:16;14.27;;;7.18;;
41661;SDS011;27351;45.992;12.666;2024-02-04T06:17:42;13.48;;;6.22;;
41661;SDS011;27351;45.992;12.666;2024-02-04T06:20:08;13.50;;;6.33;;
41661;SDS011;27351;45.992;12.666;2024-02-04T06:22:34;13.63;;;7.60;;
41661;SDS011;27351;45.992;12.666;2024-02-04T06:24:59;15.98;;;7.85;;
41661;SDS011;27351;45.992;12.666;2024-02-04T06:27:25;14.55;;;7.43;;
41661;SDS011;27351;45.992;12.666;2024-02-04T06:29:50;14.32;;;7.80;;
41661;SDS011;27351;45.992;12.666;2024-02-04T06:32:16;13.00;;;6.90;;
41661;SDS011;27351;45.992;12.666;2024-02-04T06:34:45;14.13;;;7.15;;
41661;SDS011;27351;45.992;12.666;2024-02-04T06:37:11;15.18;;;7.38;;
41661;SDS011;27351;45.992;12.666;2024-02-04T06:39:37;17.92;;;8.82;;
41661;SDS011;27351;45.992;12.666;2024-02-04T06:42:02;13.43;;;6.70;;
41661;SDS011;27351;45.992;12.666;2024-02-04T06:44:28;13.43;;;6.20;;
41661;SDS011;27351;45.992;12.666;2024-02-04T06:46:54;13.95;;;7.15;;
41661;SDS011;27351;45.992;12.666;2024-02-04T06:49:19;10.85;;;6.65;;
41661;SDS011;27351;45.992;12.666;2024-02-04T06:51:46;14.13;;;6.93;;
41661;SDS011;27351;45.992;12.666;2024-02-04T06:54:13;16.67;;;8.55;;
41661;SDS011;27351;45.992;12.666;2024-02-04T06:56:38;25.42;;;11.27;;
41661;SDS011;27351;45.992;12.666;2024-02-04T06:59:04;23.77;;;10.27;;
41661;SDS011;27351;45.992;12.666;2024-02-04T07:01:30;13.68;;;6.97;;
41661;SDS011;27351;45.992;12.666;2024-02-04T07:03:55;22.50;;;10.35;;
41661;SDS011;27351;45.992;12.666;2024-02-04T07:06:21;19.52;;;8.57;;
41661;SDS011;27351;45.992;12.666;2024-02-04T07:08:47;14.77;;;7.10;;
41661;SDS011;27351;45.992;12.666;2024-02-04T07:11:12;17.08;;;8.00;;
41661;SDS011;27351;45.992;12.666;2024-02-04T07:13:38;12.90;;;5.90;;
41661;SDS011;27351;45.992;12.666;2024-02-04T07:16:03;18.02;;;6.85;;
41661;SDS011;27351;45.992;12.666;2024-02-04T07:18:29;12.50;;;6.28;;
41661;SDS011;27351;45.992;12.666;2024-02-04T07:20:54;12.65;;;6.13;;
41661;SDS011;27351;45.992;12.666;2024-02-04T07:23:20;13.63;;;6.93;;
41661;SDS011;27351;45.992;12.666;2024-02-04T07:25:46;22.80;;;11.35;;
41661;SDS011;27351;45.992;12.666;2024-02-04T07:28:12;31.92;;;14.77;;
41661;SDS011;27351;45.992;12.666;2024-02-04T07:30:37;15.65;;;8.27;;
41661;SDS011;27351;45.992;12.666;2024-02-04T07:33:03;17.13;;;7.70;;
41661;SDS011;27351;45.992;12.666;2024-02-04T07:35:29;14.25;;;7.88;;
41661;SDS011;27351;45.992;12.666;2024-02-04T07:37:54;16.07;;;7.60;;
41661;SDS011;27351;45.992;12.666;2024-02-04T07:40:20;14.23;;;7.03;;
41661;SDS011;27351;45.992;12.666;2024-02-04T07:42:45;12.93;;;7.22;;
41661;SDS011;27351;45.992;12.666;2024-02-04T07:45:11;13.82;;;7.68;;
41661;SDS011;27351;45.992;12.666;2024-02-04T07:47:36;14.65;;;7.85;;
41661;SDS011;27351;45.992;12.666;2024-02-04T07:50:02;13.23;;;6.88;;
41661;SDS011;27351;45.992;12.666;2024-02-04T07:52:28;11.23;;;6.10;;
41661;SDS011;27351;45.992;12.666;2024-02-04T07:54:54;13.30;;;6.30;;
41661;SDS011;27351;45.992;12.666;2024-02-04T07:57:19;10.17;;;5.67;;
41661;SDS011;27351;45.992;12.666;2024-02-04T07:59:45;12.00;;;6.22;;
41661;SDS011;27351;45.992;12.666;2024-02-04T08:02:11;11.77;;;6.38;;
41661;SDS011;27351;45.992;12.666;2024-02-04T08:04:39;12.95;;;6.32;;
41661;SDS011;27351;45.992;12.666;2024-02-04T08:07:05;12.45;;;5.95;;
41661;SDS011;27351;45.992;12.666;2024-02-04T08:09:30;11.43;;;6.47;;
41661;SDS011;27351;45.992;12.666;2024-02-04T08:11:56;14.37;;;7.37;;
41661;SDS011;27351;45.992;12.666;2024-02-04T08:14:21;14.98;;;7.72;;
41661;SDS011;27351;45.992;12.666;2024-02-04T08:16:47;14.60;;;7.47;;
41661;SDS011;27351;45.992;12.666;2024-02-04T08:19:13;18.90;;;10.25;;
41661;SDS011;27351;45.992;12.666;2024-02-04T08:21:39;15.80;;;7.67;;
41661;SDS011;27351;45.992;12.666;2024-02-04T08:24:05;14.90;;;7.63;;
41661;SDS011;27351;45.992;12.666;2024-02-04T08:26:31;15.75;;;8.15;;
41661;SDS011;27351;45.992;12.666;2024-02-04T08:28:56;15.52;;;6.95;;
41661;SDS011;27351;45.992;12.666;2024-02-04T08:31:22;16.27;;;7.47;;
41661;SDS011;27351;45.992;12.666;2024-02-04T08:33:47;16.17;;;7.03;;
41661;SDS011;27351;45.992;12.666;2024-02-04T08:36:13;17.17;;;8.73;;
41661;SDS011;27351;45.992;12.666;2024-02-04T08:38:38;15.90;;;7.22;;
41661;SDS011;27351;45.992;12.666;2024-02-04T08:41:04;12.98;;;6.90;;
41661;SDS011;27351;45.992;12.666;2024-02-04T08:43:30;16.63;;;7.93;;
41661;SDS011;27351;45.992;12.666;2024-02-04T08:45:55;14.60;;;7.22;;
41661;SDS011;27351;45.992;12.666;2024-02-04T08:48:23;13.55;;;7.18;;
41661;SDS011;27351;45.992;12.666;2024-02-04T08:50:49;14.03;;;7.37;;
41661;SDS011;27351;45.992;12.666;2024-02-04T08:53:15;13.47;;;7.07;;
41661;SDS011;27351;45.992;12.666;2024-02-04T08:55:40;12.97;;;7.17;;
41661;SDS011;27351;45.992;12.666;2024-02-04T08:58:06;12.27;;;6.43;;
41661;SDS011;27351;45.992;12.666;2024-02-04T09:00:31;13.07;;;7.23;;
41661;SDS011;27351;45.992;12.666;2024-02-04T09:02:57;14.23;;;6.60;;
41661;SDS011;27351;45.992;12.666;2024-02-04T09:05:22;14.87;;;6.77;;
41661;SDS011;27351;45.992;12.666;2024-02-04T09:07:48;12.10;;;6.90;;
41661;SDS011;27351;45.992;12.666;2024-02-04T09:10:13;15.27;;;6.40;;
41661;SDS011;27351;45.992;12.666;2024-02-04T09:12:39;12.97;;;6.43;;
41661;SDS011;27351;45.992;12.666;2024-02-04T09:15:05;13.33;;;7.00;;
41661;SDS011;27351;45.992;12.666;2024-02-04T09:17:31;11.37;;;5.83;;
41661;SDS011;27351;45.992;12.666;2024-02-04T09:19:58;12.20;;;6.13;;
41661;SDS011;27351;45.992;12.666;2024-02-04T09:22:24;11.70;;;6.32;;
41661;SDS011;27351;45.992;12.666;2024-02-04T09:24:50;15.73;;;6.97;;
41661;SDS011;27351;45.992;12.666;2024-02-04T09:27:15;12.65;;;5.72;;
41661;SDS011;27351;45.992;12.666;2024-02-04T09:29:41;12.05;;;6.10;;
41661;SDS011;27351;45.992;12.666;2024-02-04T09:32:06;12.50;;;6.82;;
41661;SDS011;27351;45.992;12.666;2024-02-04T09:34:33;12.52;;;6.00;;
41661;SDS011;27351;45.992;12.666;2024-02-04T09:36:58;13.03;;;6.13;;
41661;SDS011;27351;45.992;12.666;2024-02-04T09:39:24;13.27;;;6.37;;
41661;SDS011;27351;45.992;12.666;2024-02-04T09:41:49;13.47;;;6.80;;
41661;SDS011;27351;45.992;12.666;2024-02-04T09:44:15;13.53;;;6.63;;
41661;SDS011;27351;45.992;12.666;2024-02-04T09:46:41;13.53;;;6.77;;
41661;SDS011;27351;45.992;12.666;2024-02-04T09:49:07;13.20;;;7.57;;
41661;SDS011;27351;45.992;12.666;2024-02-04T09:51:34;14.23;;;7.68;;
41661;SDS011;27351;45.992;12.666;2024-02-04T09:54:02;16.15;;;8.13;;
41661;SDS011;27351;45.992;12.666;2024-02-04T09:56:28;15.65;;;7.90;;
41661;SDS011;27351;45.992;12.666;2024-02-04T09:58:54;16.35;;;8.45;;
41661;SDS011;27351;45.992;12.666;2024-02-04T10:01:21;13.38;;;7.57;;
41661;SDS011;27351;45.992;12.666;2024-02-04T10:03:48;14.35;;;7.55;;
41661;SDS011;27351;45.992;12.666;2024-02-04T10:06:14;14.00;;;8.07;;
41661;SDS011;27351;45.992;12.666;2024-02-04T10:08:39;15.47;;;8.67;;
41661;SDS011;27351;45.992;12.666;2024-02-04T10:11:05;16.00;;;9.00;;
41661;SDS011;27351;45.992;12.666;2024-02-04T10:13:41;18.37;;;9.43;;
41661;SDS011;27351;45.992;12.666;2024-02-04T10:16:07;17.48;;;9.80;;
41661;SDS011;27351;45.992;12.666;2024-02-04T10:18:32;19.63;;;10.20;;
41661;SDS011;27351;45.992;12.666;2024-02-04T10:20:58;18.60;;;10.07;;
41661;SDS011;27351;45.992;12.666;2024-02-04T10:23:24;18.45;;;10.43;;
41661;SDS011;27351;45.992;12.666;2024-02-04T10:25:56;18.50;;;10.23;;
41661;SDS011;27351;45.992;12.666;2024-02-04T10:28:22;19.48;;;9.02;;
41661;SDS011;27351;45.992;12.666;2024-02-04T10:30:47;16.40;;;9.10;;
41661;SDS011;27351;45.992;12.666;2024-02-04T10:33:13;15.83;;;8.83;;
41661;SDS011;27351;45.992;12.666;2024-02-04T10:35:39;15.93;;;8.80;;
41661;SDS011;27351;45.992;12.666;2024-02-04T10:38:04;14.93;;;7.77;;
41661;SDS011;27351;45.992;12.666;2024-02-04T10:40:32;12.00;;;6.47;;
41661;SDS011;27351;45.992;12.666;2024-02-04T10:42:58;14.80;;;7.60;;
41661;SDS011;27351;45.992;12.666;2024-02-04T10:45:25;14.27;;;7.05;;
41661;SDS011;27351;45.992;12.666;2024-02-04T10:47:55;13.65;;;7.32;;
41661;SDS011;27351;45.992;12.666;2024-02-04T10:50:23;13.40;;;6.15;;
41661;SDS011;27351;45.992;12.666;2024-02-04T10:52:50;12.80;;;6.00;;
41661;SDS011;27351;45.992;12.666;2024-02-04T10:55:16;12.88;;;6.43;;
41661;SDS011;27351;45.992;12.666;2024-02-04T10:57:42;15.82;;;6.47;;
41661;SDS011;27351;45.992;12.666;2024-02-04T11:00:09;11.73;;;5.55;;
41661;SDS011;27351;45.992;12.666;2024-02-04T11:02:37;13.50;;;6.38;;
41661;SDS011;27351;45.992;12.666;2024-02-04T11:05:04;12.10;;;6.18;;
41661;SDS011;27351;45.992;12.666;2024-02-04T11:07:33;11.95;;;6.22;;
41661;SDS011;27351;45.992;12.666;2024-02-04T11:09:59;11.82;;;6.28;;
41661;SDS011;27351;45.992;12.666;2024-02-04T11:12:25;12.13;;;6.10;;
41661;SDS011;27351;45.992;12.666;2024-02-04T11:14:52;12.70;;;7.03;;
41661;SDS011;27351;45.992;12.666;2024-02-04T11:25:15;13.38;;;6.78;;
41661;SDS011;27351;45.992;12.666;2024-02-04T11:27:43;14.27;;;7.10;;
41661;SDS011;27351;45.992;12.666;2024-02-04T11:30:09;14.20;;;6.93;;
41661;SDS011;27351;45.992;12.666;2024-02-04T11:32:35;15.18;;;6.72;;
41661;SDS011;27351;45.992;12.666;2024-02-04T11:35:01;14.50;;;7.13;;
41661;SDS011;27351;45.992;12.666;2024-02-04T11:37:28;14.20;;;6.95;;
41661;SDS011;27351;45.992;12.666;2024-02-04T11:39:54;12.75;;;6.22;;
41661;SDS011;27351;45.992;12.666;2024-02-04T11:42:23;13.90;;;6.63;;
41661;SDS011;27351;45.992;12.666;2024-02-04T11:44:49;12.30;;;6.13;;
41661;SDS011;27351;45.992;12.666;2024-02-04T11:47:27;13.00;;;6.88;;
41661;SDS011;27351;45.992;12.666;2024-02-04T11:49:57;13.43;;;6.85;;
41661;SDS011;27351;45.992;12.666;2024-02-04T11:52:23;14.90;;;7.38;;
41661;SDS011;27351;45.992;12.666;2024-02-04T11:54:48;15.25;;;8.18;;
41661;SDS011;27351;45.992;12.666;2024-02-04T11:57:14;16.13;;;7.72;;
41661;SDS011;27351;45.992;12.666;2024-02-04T11:59:40;16.33;;;8.60;;
41661;SDS011;27351;45.992;12.666;2024-02-04T12:02:05;14.27;;;7.33;;
41661;SDS011;27351;45.992;12.666;2024-02-04T12:04:31;12.97;;;7.53;;
41661;SDS011;27351;45.992;12.666;2024-02-04T12:06:57;16.47;;;8.30;;
41661;SDS011;27351;45.992;12.666;2024-02-04T12:09:23;19.02;;;9.52;;
41661;SDS011;27351;45.992;12.666;2024-02-04T12:11:49;16.08;;;9.27;;
41661;SDS011;27351;45.992;12.666;2024-02-04T12:14:15;17.25;;;8.88;;
41661;SDS011;27351;45.992;12.666;2024-02-04T12:16:42;19.87;;;9.93;;
41661;SDS011;27351;45.992;12.666;2024-02-04T12:19:07;21.47;;;11.43;;
41661;SDS011;27351;45.992;12.666;2024-02-04T12:21:33;20.10;;;10.70;;
41661;SDS011;27351;45.992;12.666;2024-02-04T12:23:59;20.35;;;11.80;;
41661;SDS011;27351;45.992;12.666;2024-02-04T12:26:25;20.10;;;11.35;;
41661;SDS011;27351;45.992;12.666;2024-02-04T12:28:51;24.85;;;12.93;;
41661;SDS011;27351;45.992;12.666;2024-02-04T12:31:17;19.80;;;11.47;;
41661;SDS011;27351;45.992;12.666;2024-02-04T12:33:51;20.67;;;11.50;;
41661;SDS011;27351;45.992;12.666;2024-02-04T12:36:17;23.02;;;12.20;;
41661;SDS011;27351;45.992;12.666;2024-02-04T12:38:49;20.97;;;11.33;;
41661;SDS011;27351;45.992;12.666;2024-02-04T12:41:15;22.88;;;11.25;;
41661;SDS011;27351;45.992;12.666;2024-02-04T12:43:41;24.35;;;12.13;;
41661;SDS011;27351;45.992;12.666;2024-02-04T12:46:06;20.58;;;12.10;;
41661;SDS011;27351;45.992;12.666;2024-02-04T12:48:34;21.13;;;11.77;;
41661;SDS011;27351;45.992;12.666;2024-02-04T12:51:00;20.87;;;11.10;;
41661;SDS011;27351;45.992;12.666;2024-02-04T12:53:26;19.93;;;11.50;;
41661;SDS011;27351;45.992;12.666;2024-02-04T12:55:57;24.53;;;12.97;;
41661;SDS011;27351;45.992;12.666;2024-02-04T12:58:23;22.40;;;11.50;;
41661;SDS011;27351;45.992;12.666;2024-02-04T13:00:49;24.90;;;11.70;;
41661;SDS011;27351;45.992;12.666;2024-02-04T13:03:24;24.52;;;11.40;;
41661;SDS011;27351;45.992;12.666;2024-02-04T13:05:50;23.43;;;12.03;;
41661;SDS011;27351;45.992;12.666;2024-02-04T13:08:18;22.30;;;11.90;;
41661;SDS011;27351;45.992;12.666;2024-02-04T13:10:44;21.38;;;12.73;;
41661;SDS011;27351;45.992;12.666;2024-02-04T13:13:19;24.00;;;12.60;;
41661;SDS011;27351;45.992;12.666;2024-02-04T13:15:45;29.15;;;12.23;;
41661;SDS011;27351;45.992;12.666;2024-02-04T13:18:12;27.58;;;11.77;;
41661;SDS011;27351;45.992;12.666;2024-02-04T13:20:40;25.05;;;13.95;;
41661;SDS011;27351;45.992;12.666;2024-02-04T13:23:10;28.08;;;14.18;;
41661;SDS011;27351;45.992;12.666;2024-02-04T13:25:36;25.37;;;13.73;;
41661;SDS011;27351;45.992;12.666;2024-02-04T13:28:02;24.77;;;13.17;;
41661;SDS011;27351;45.992;12.666;2024-02-04T13:30:28;28.77;;;13.87;;
41661;SDS011;27351;45.992;12.666;2024-02-04T13:32:54;27.25;;;13.57;;
41661;SDS011;27351;45.992;12.666;2024-02-04T13:35:19;24.50;;;12.93;;
41661;SDS011;27351;45.992;12.666;2024-02-04T13:37:46;29.10;;;13.23;;
41661;SDS011;27351;45.992;12.666;2024-02-04T13:40:21;27.60;;;13.20;;
41661;SDS011;27351;45.992;12.666;2024-02-04T13:42:47;31.90;;;14.90;;
41661;SDS011;27351;45.992;12.666;2024-02-04T13:45:13;28.13;;;14.90;;
41661;SDS011;27351;45.992;12.666;2024-02-04T13:47:39;29.85;;;14.35;;
41661;SDS011;27351;45.992;12.666;2024-02-04T13:50:05;31.50;;;15.77;;
41661;SDS011;27351;45.992;12.666;2024-02-04T13:52:31;29.92;;;15.80;;
41661;SDS011;27351;45.992;12.666;2024-02-04T13:54:56;35.03;;;15.57;;
41661;SDS011;27351;45.992;12.666;2024-02-04T13:57:22;34.78;;;15.65;;
41661;SDS011;27351;45.992;12.666;2024-02-04T13:59:48;35.20;;;17.00;;
41661;SDS011;27351;45.992;12.666;2024-02-04T14:02:13;30.20;;;15.55;;
41661;SDS011;27351;45.992;12.666;2024-02-04T14:04:39;35.70;;;16.23;;
41661;SDS011;27351;45.992;12.666;2024-02-04T14:07:05;34.85;;;16.80;;
41661;SDS011;27351;45.992;12.666;2024-02-04T14:09:30;34.83;;;16.92;;
41661;SDS011;27351;45.992;12.666;2024-02-04T14:11:56;36.58;;;17.35;;
41661;SDS011;27351;45.992;12.666;2024-02-04T14:14:25;39.83;;;17.73;;
41661;SDS011;27351;45.992;12.666;2024-02-04T14:16:50;32.73;;;17.97;;
41661;SDS011;27351;45.992;12.666;2024-02-04T14:19:16;38.70;;;17.13;;
41661;SDS011;27351;45.992;12.666;2024-02-04T14:21:42;35.20;;;17.00;;
41661;SDS011;27351;45.992;12.666;2024-02-04T14:24:08;36.63;;;18.63;;